sensor_id;sensor_type;location;lat;lon;timestamp;temperature;humidity
19060;DHT22;9663;48.996;8.334;2023-06-14T00:01:44;19.20;29.00
19060;DHT22;9663;48.996;8.334;2023-06-14T00:04:13;19.10;29.10
19060;DHT22;9663;48.996;8.334;2023-06-14T00:06:42;19.00;29.20
19060;DHT22;9663;48.996;8.334;2023-06-14T00:09:13;18.90;29.30
19060;DHT22;9663;48.996;8.334;2023-06-14T00:11:40;18.90;29.50
19060;DHT22;9663;48.996;8.334;2023-06-14T00:14:07;18.80;29.60
19060;DHT22;9663;48.996;8.334;2023-06-14T00:16:33;18.80;29.70
19060;DHT22;9663;48.996;8.334;2023-06-14T00:19:01;18.70;29.80
19060;DHT22;9663;48.996;8.334;2023-06-14T00:21:29;18.70;29.90
19060;DHT22;9663;48.996;8.334;2023-06-14T00:23:57;18.70;30.00
19060;DHT22;9663;48.996;8.334;2023-06-14T00:26:23;18.70;30.10
19060;DHT22;9663;48.996;8.334;2023-06-14T00:28:48;18.70;30.10
19060;DHT22;9663;48.996;8.334;2023-06-14T00:31:14;18.70;30.20
19060;DHT22;9663;48.996;8.334;2023-06-14T00:33:40;18.80;30.40
19060;DHT22;9663;48.996;8.334;2023-06-14T00:36:06;18.80;30.50
19060;DHT22;9663;48.996;8.334;2023-06-14T00:38:31;18.80;30.50
19060;DHT22;9663;48.996;8.334;2023-06-14T00:40:57;18.80;31.00
19060;DHT22;9663;48.996;8.334;2023-06-14T00:43:23;18.80;30.60
19060;DHT22;9663;48.996;8.334;2023-06-14T00:45:48;18.80;30.60
19060;DHT22;9663;48.996;8.334;2023-06-14T00:48:15;18.80;30.70
19060;DHT22;9663;48.996;8.334;2023-06-14T00:50:41;18.90;30.80
19060;DHT22;9663;48.996;8.334;2023-06-14T00:53:07;18.90;30.70
19060;DHT22;9663;48.996;8.334;2023-06-14T00:55:33;18.90;30.70
19060;DHT22;9663;48.996;8.334;2023-06-14T00:57:59;18.90;30.70
19060;DHT22;9663;48.996;8.334;2023-06-14T01:00:25;19.00;30.60
19060;DHT22;9663;48.996;8.334;2023-06-14T01:02:51;19.00;30.50
19060;DHT22;9663;48.996;8.334;2023-06-14T01:05:17;19.10;30.50
19060;DHT22;9663;48.996;8.334;2023-06-14T01:11:05;19.20;31.40
19060;DHT22;9663;48.996;8.334;2023-06-14T01:13:39;19.20;30.40
19060;DHT22;9663;48.996;8.334;2023-06-14T01:16:08;19.30;30.30
19060;DHT22;9663;48.996;8.334;2023-06-14T01:18:35;19.40;30.20
19060;DHT22;9663;48.996;8.334;2023-06-14T01:21:01;19.40;30.20
19060;DHT22;9663;48.996;8.334;2023-06-14T01:23:31;19.40;30.20
19060;DHT22;9663;48.996;8.334;2023-06-14T01:25:59;19.50;30.20
19060;DHT22;9663;48.996;8.334;2023-06-14T01:28:26;19.60;30.20
19060;DHT22;9663;48.996;8.334;2023-06-14T01:31:00;19.60;30.90
19060;DHT22;9663;48.996;8.334;2023-06-14T01:33:31;19.60;30.20
19060;DHT22;9663;48.996;8.334;2023-06-14T01:35:59;19.70;30.20
19060;DHT22;9663;48.996;8.334;2023-06-14T01:38:27;19.70;30.20
19060;DHT22;9663;48.996;8.334;2023-06-14T01:40:57;19.70;30.20
19060;DHT22;9663;48.996;8.334;2023-06-14T01:43:25;19.70;30.30
19060;DHT22;9663;48.996;8.334;2023-06-14T01:45:53;19.70;30.20
19060;DHT22;9663;48.996;8.334;2023-06-14T01:48:20;19.70;30.30
19060;DHT22;9663;48.996;8.334;2023-06-14T01:50:48;19.70;30.30
19060;DHT22;9663;48.996;8.334;2023-06-14T01:53:15;19.60;30.30
19060;DHT22;9663;48.996;8.334;2023-06-14T01:55:41;19.60;30.30
19060;DHT22;9663;48.996;8.334;2023-06-14T01:58:11;19.60;30.50
19060;DHT22;9663;48.996;8.334;2023-06-14T02:00:38;19.60;31.20
19060;DHT22;9663;48.996;8.334;2023-06-14T02:03:04;19.60;30.60
19060;DHT22;9663;48.996;8.334;2023-06-14T02:05:30;19.50;30.60
19060;DHT22;9663;48.996;8.334;2023-06-14T02:07:56;19.50;30.80
19060;DHT22;9663;48.996;8.334;2023-06-14T02:10:22;19.50;30.90
19060;DHT22;9663;48.996;8.334;2023-06-14T02:12:48;19.40;31.60
19060;DHT22;9663;48.996;8.334;2023-06-14T02:15:13;19.30;31.00
19060;DHT22;9663;48.996;8.334;2023-06-14T02:17:42;19.30;31.20
19060;DHT22;9663;48.996;8.334;2023-06-14T02:20:09;19.20;31.40
19060;DHT22;9663;48.996;8.334;2023-06-14T02:22:35;19.10;31.60
19060;DHT22;9663;48.996;8.334;2023-06-14T02:25:01;19.00;31.80
19060;DHT22;9663;48.996;8.334;2023-06-14T02:27:27;18.90;31.80
19060;DHT22;9663;48.996;8.334;2023-06-14T02:29:52;18.80;31.90
19060;DHT22;9663;48.996;8.334;2023-06-14T02:32:18;18.70;32.00
19060;DHT22;9663;48.996;8.334;2023-06-14T02:34:44;18.70;32.10
19060;DHT22;9663;48.996;8.334;2023-06-14T02:37:09;18.60;32.10
19060;DHT22;9663;48.996;8.334;2023-06-14T02:39:36;18.60;32.20
19060;DHT22;9663;48.996;8.334;2023-06-14T02:42:02;18.50;32.30
19060;DHT22;9663;48.996;8.334;2023-06-14T02:44:28;18.50;32.50
19060;DHT22;9663;48.996;8.334;2023-06-14T02:46:55;18.50;32.60
19060;DHT22;9663;48.996;8.334;2023-06-14T02:49:22;18.50;32.70
19060;DHT22;9663;48.996;8.334;2023-06-14T02:51:48;18.40;32.70
19060;DHT22;9663;48.996;8.334;2023-06-14T02:54:13;18.40;32.70
19060;DHT22;9663;48.996;8.334;2023-06-14T02:56:39;18.40;32.80
19060;DHT22;9663;48.996;8.334;2023-06-14T02:59:06;18.40;32.80
19060;DHT22;9663;48.996;8.334;2023-06-14T03:01:32;18.40;32.90
19060;DHT22;9663;48.996;8.334;2023-06-14T03:04:09;18.40;33.00
19060;DHT22;9663;48.996;8.334;2023-06-14T03:06:35;18.40;33.00
19060;DHT22;9663;48.996;8.334;2023-06-14T03:09:02;18.40;33.80
19060;DHT22;9663;48.996;8.334;2023-06-14T03:11:32;18.40;33.20
19060;DHT22;9663;48.996;8.334;2023-06-14T03:13:58;18.40;33.20
19060;DHT22;9663;48.996;8.334;2023-06-14T03:16:24;18.40;33.40
19060;DHT22;9663;48.996;8.334;2023-06-14T03:18:51;18.40;33.30
19060;DHT22;9663;48.996;8.334;2023-06-14T03:21:18;18.50;33.30
19060;DHT22;9663;48.996;8.334;2023-06-14T03:23:48;18.50;33.40
19060;DHT22;9663;48.996;8.334;2023-06-14T03:26:14;18.50;33.50
19060;DHT22;9663;48.996;8.334;2023-06-14T03:28:44;18.50;33.50
19060;DHT22;9663;48.996;8.334;2023-06-14T03:31:11;18.50;33.60
19060;DHT22;9663;48.996;8.334;2023-06-14T03:33:38;18.50;33.60
19060;DHT22;9663;48.996;8.334;2023-06-14T03:36:04;18.50;33.80
19060;DHT22;9663;48.996;8.334;2023-06-14T03:38:31;18.50;33.80
19060;DHT22;9663;48.996;8.334;2023-06-14T03:40:56;18.60;33.90
19060;DHT22;9663;48.996;8.334;2023-06-14T03:43:22;18.60;33.90
19060;DHT22;9663;48.996;8.334;2023-06-14T03:45:48;18.60;34.00
19060;DHT22;9663;48.996;8.334;2023-06-14T03:48:13;18.60;33.90
19060;DHT22;9663;48.996;8.334;2023-06-14T03:50:39;18.60;34.00
19060;DHT22;9663;48.996;8.334;2023-06-14T03:53:06;18.70;34.10
19060;DHT22;9663;48.996;8.334;2023-06-14T03:55:32;18.70;34.10
19060;DHT22;9663;48.996;8.334;2023-06-14T03:57:58;18.70;34.80
19060;DHT22;9663;48.996;8.334;2023-06-14T04:00:24;18.70;34.20
19060;DHT22;9663;48.996;8.334;2023-06-14T04:02:50;18.70;34.20
19060;DHT22;9663;48.996;8.334;2023-06-14T04:05:16;18.70;34.30
19060;DHT22;9663;48.996;8.334;2023-06-14T04:07:44;18.80;34.40
19060;DHT22;9663;48.996;8.334;2023-06-14T04:10:13;18.80;34.40
19060;DHT22;9663;48.996;8.334;2023-06-14T04:12:41;18.80;34.60
19060;DHT22;9663;48.996;8.334;2023-06-14T04:15:08;18.80;34.50
19060;DHT22;9663;48.996;8.334;2023-06-14T04:17:37;18.80;34.50
19060;DHT22;9663;48.996;8.334;2023-06-14T04:20:04;18.90;34.60
19060;DHT22;9663;48.996;8.334;2023-06-14T04:22:34;18.90;34.60
19060;DHT22;9663;48.996;8.334;2023-06-14T04:25:01;18.90;34.80
19060;DHT22;9663;48.996;8.334;2023-06-14T04:27:31;19.00;35.30
19060;DHT22;9663;48.996;8.334;2023-06-14T04:29:59;19.00;34.70
19060;DHT22;9663;48.996;8.334;2023-06-14T04:32:29;19.00;34.80
19060;DHT22;9663;48.996;8.334;2023-06-14T04:35:05;19.10;34.90
19060;DHT22;9663;48.996;8.334;2023-06-14T04:37:32;19.10;34.90
19060;DHT22;9663;48.996;8.334;2023-06-14T04:39:58;19.20;34.90
19060;DHT22;9663;48.996;8.334;2023-06-14T04:42:25;19.30;34.90
19060;DHT22;9663;48.996;8.334;2023-06-14T04:44:56;19.30;35.00
19060;DHT22;9663;48.996;8.334;2023-06-14T04:47:22;19.40;35.00
19060;DHT22;9663;48.996;8.334;2023-06-14T04:49:50;19.50;35.00
19060;DHT22;9663;48.996;8.334;2023-06-14T04:52:18;19.60;35.00
19060;DHT22;9663;48.996;8.334;2023-06-14T04:54:46;19.70;35.00
19060;DHT22;9663;48.996;8.334;2023-06-14T04:57:12;19.70;34.90
19060;DHT22;9663;48.996;8.334;2023-06-14T04:59:43;19.80;35.00
19060;DHT22;9663;48.996;8.334;2023-06-14T05:02:12;19.90;35.00
19060;DHT22;9663;48.996;8.334;2023-06-14T05:04:38;20.00;34.90
19060;DHT22;9663;48.996;8.334;2023-06-14T05:07:07;20.00;34.90
19060;DHT22;9663;48.996;8.334;2023-06-14T05:09:33;20.10;35.00
19060;DHT22;9663;48.996;8.334;2023-06-14T05:11:59;20.20;34.90
19060;DHT22;9663;48.996;8.334;2023-06-14T05:14:26;20.20;34.80
19060;DHT22;9663;48.996;8.334;2023-06-14T05:16:54;20.20;34.70
19060;DHT22;9663;48.996;8.334;2023-06-14T05:19:20;20.30;34.70
19060;DHT22;9663;48.996;8.334;2023-06-14T05:21:46;20.40;34.70
19060;DHT22;9663;48.996;8.334;2023-06-14T05:24:13;20.40;34.70
19060;DHT22;9663;48.996;8.334;2023-06-14T05:26:39;20.50;34.70
19060;DHT22;9663;48.996;8.334;2023-06-14T05:29:06;20.60;34.70
19060;DHT22;9663;48.996;8.334;2023-06-14T05:31:31;20.60;34.60
19060;DHT22;9663;48.996;8.334;2023-06-14T05:33:58;20.60;34.60
19060;DHT22;9663;48.996;8.334;2023-06-14T05:36:23;20.60;34.50
19060;DHT22;9663;48.996;8.334;2023-06-14T05:38:50;20.70;34.50
19060;DHT22;9663;48.996;8.334;2023-06-14T05:41:26;20.70;34.50
19060;DHT22;9663;48.996;8.334;2023-06-14T05:43:54;20.80;34.60
19060;DHT22;9663;48.996;8.334;2023-06-14T05:46:20;20.80;34.60
19060;DHT22;9663;48.996;8.334;2023-06-14T05:48:50;20.80;34.60
19060;DHT22;9663;48.996;8.334;2023-06-14T05:51:16;20.90;34.50
19060;DHT22;9663;48.996;8.334;2023-06-14T05:53:44;20.90;34.60
19060;DHT22;9663;48.996;8.334;2023-06-14T05:56:14;21.00;34.60
19060;DHT22;9663;48.996;8.334;2023-06-14T05:58:40;21.10;34.50
19060;DHT22;9663;48.996;8.334;2023-06-14T06:01:06;21.10;34.40
19060;DHT22;9663;48.996;8.334;2023-06-14T06:03:32;21.20;34.40
19060;DHT22;9663;48.996;8.334;2023-06-14T06:05:58;21.30;34.50
19060;DHT22;9663;48.996;8.334;2023-06-14T06:08:24;21.30;34.40
19060;DHT22;9663;48.996;8.334;2023-06-14T06:10:49;21.50;34.40
19060;DHT22;9663;48.996;8.334;2023-06-14T06:13:16;21.50;34.20
19060;DHT22;9663;48.996;8.334;2023-06-14T06:15:42;21.60;34.30
19060;DHT22;9663;48.996;8.334;2023-06-14T06:18:08;21.60;34.20
19060;DHT22;9663;48.996;8.334;2023-06-14T06:20:34;21.70;34.60
19060;DHT22;9663;48.996;8.334;2023-06-14T06:23:01;21.70;34.20
19060;DHT22;9663;48.996;8.334;2023-06-14T06:25:28;21.80;34.20
19060;DHT22;9663;48.996;8.334;2023-06-14T06:27:55;21.90;34.20
19060;DHT22;9663;48.996;8.334;2023-06-14T06:30:23;21.90;34.20
19060;DHT22;9663;48.996;8.334;2023-06-14T06:32:50;22.00;34.20
19060;DHT22;9663;48.996;8.334;2023-06-14T06:35:16;22.10;34.10
19060;DHT22;9663;48.996;8.334;2023-06-14T06:37:42;22.10;34.20
19060;DHT22;9663;48.996;8.334;2023-06-14T06:40:08;22.20;34.20
19060;DHT22;9663;48.996;8.334;2023-06-14T06:42:35;22.30;34.20
19060;DHT22;9663;48.996;8.334;2023-06-14T06:45:01;22.40;34.20
19060;DHT22;9663;48.996;8.334;2023-06-14T06:47:27;22.50;34.10
19060;DHT22;9663;48.996;8.334;2023-06-14T06:49:52;22.60;34.00
19060;DHT22;9663;48.996;8.334;2023-06-14T06:52:18;22.60;33.90
19060;DHT22;9663;48.996;8.334;2023-06-14T06:54:44;22.70;34.00
19060;DHT22;9663;48.996;8.334;2023-06-14T06:57:09;22.80;34.00
19060;DHT22;9663;48.996;8.334;2023-06-14T06:59:36;22.90;34.00
19060;DHT22;9663;48.996;8.334;2023-06-14T07:02:02;23.00;34.00
19060;DHT22;9663;48.996;8.334;2023-06-14T07:04:28;23.10;33.90
19060;DHT22;9663;48.996;8.334;2023-06-14T07:06:54;23.30;33.80
19060;DHT22;9663;48.996;8.334;2023-06-14T07:09:20;23.40;33.70
19060;DHT22;9663;48.996;8.334;2023-06-14T07:11:47;23.40;33.60
19060;DHT22;9663;48.996;8.334;2023-06-14T07:14:13;23.50;33.50
19060;DHT22;9663;48.996;8.334;2023-06-14T07:16:39;23.50;33.30
19060;DHT22;9663;48.996;8.334;2023-06-14T07:19:05;23.50;33.30
19060;DHT22;9663;48.996;8.334;2023-06-14T07:21:31;23.60;33.40
19060;DHT22;9663;48.996;8.334;2023-06-14T07:23:56;23.60;33.30
19060;DHT22;9663;48.996;8.334;2023-06-14T07:26:22;23.70;33.30
19060;DHT22;9663;48.996;8.334;2023-06-14T07:28:48;23.70;33.20
19060;DHT22;9663;48.996;8.334;2023-06-14T07:31:17;23.80;33.20
19060;DHT22;9663;48.996;8.334;2023-06-14T07:33:45;23.90;33.20
19060;DHT22;9663;48.996;8.334;2023-06-14T07:36:11;24.00;33.30
19060;DHT22;9663;48.996;8.334;2023-06-14T07:38:36;24.00;33.20
19060;DHT22;9663;48.996;8.334;2023-06-14T07:41:02;24.10;33.10
19060;DHT22;9663;48.996;8.334;2023-06-14T07:43:28;24.30;33.10
19060;DHT22;9663;48.996;8.334;2023-06-14T07:45:54;24.40;33.10
19060;DHT22;9663;48.996;8.334;2023-06-14T07:48:20;24.50;32.90
19060;DHT22;9663;48.996;8.334;2023-06-14T07:50:46;24.50;32.80
19060;DHT22;9663;48.996;8.334;2023-06-14T07:53:12;24.60;32.70
19060;DHT22;9663;48.996;8.334;2023-06-14T07:55:37;24.70;32.70
19060;DHT22;9663;48.996;8.334;2023-06-14T07:58:04;24.80;32.70
19060;DHT22;9663;48.996;8.334;2023-06-14T08:00:30;24.90;32.80
19060;DHT22;9663;48.996;8.334;2023-06-14T08:02:56;25.00;32.70
19060;DHT22;9663;48.996;8.334;2023-06-14T08:05:24;25.20;32.70
19060;DHT22;9663;48.996;8.334;2023-06-14T08:07:51;25.30;32.50
19060;DHT22;9663;48.996;8.334;2023-06-14T08:10:17;25.40;32.40
19060;DHT22;9663;48.996;8.334;2023-06-14T08:12:43;25.60;32.40
19060;DHT22;9663;48.996;8.334;2023-06-14T08:15:09;25.70;32.30
19060;DHT22;9663;48.996;8.334;2023-06-14T08:17:35;25.80;32.10
19060;DHT22;9663;48.996;8.334;2023-06-14T08:20:01;26.00;32.10
19060;DHT22;9663;48.996;8.334;2023-06-14T08:22:29;26.10;31.80
19060;DHT22;9663;48.996;8.334;2023-06-14T08:24:59;26.10;31.80
19060;DHT22;9663;48.996;8.334;2023-06-14T08:27:26;26.20;31.70
19060;DHT22;9663;48.996;8.334;2023-06-14T08:29:53;26.40;31.70
19060;DHT22;9663;48.996;8.334;2023-06-14T08:32:18;26.50;31.60
19060;DHT22;9663;48.996;8.334;2023-06-14T08:34:44;26.60;31.60
19060;DHT22;9663;48.996;8.334;2023-06-14T08:37:10;26.70;31.50
19060;DHT22;9663;48.996;8.334;2023-06-14T08:39:35;26.80;31.30
19060;DHT22;9663;48.996;8.334;2023-06-14T08:42:03;26.80;31.20
19060;DHT22;9663;48.996;8.334;2023-06-14T08:44:31;26.90;31.10
19060;DHT22;9663;48.996;8.334;2023-06-14T08:46:57;27.00;31.10
19060;DHT22;9663;48.996;8.334;2023-06-14T08:49:25;27.10;31.00
19060;DHT22;9663;48.996;8.334;2023-06-14T08:51:58;27.20;30.90
19060;DHT22;9663;48.996;8.334;2023-06-14T08:54:29;27.20;30.60
19060;DHT22;9663;48.996;8.334;2023-06-14T08:56:59;27.30;30.60
19060;DHT22;9663;48.996;8.334;2023-06-14T08:59:26;27.30;30.60
19060;DHT22;9663;48.996;8.334;2023-06-14T09:01:53;27.40;30.70
19060;DHT22;9663;48.996;8.334;2023-06-14T09:04:20;27.50;30.80
19060;DHT22;9663;48.996;8.334;2023-06-14T09:06:56;27.60;30.70
19060;DHT22;9663;48.996;8.334;2023-06-14T09:09:22;27.70;30.60
19060;DHT22;9663;48.996;8.334;2023-06-14T09:11:54;27.80;30.50
19060;DHT22;9663;48.996;8.334;2023-06-14T09:14:21;27.90;30.40
19060;DHT22;9663;48.996;8.334;2023-06-14T09:16:52;28.00;30.20
19060;DHT22;9663;48.996;8.334;2023-06-14T09:19:23;28.10;30.20
19060;DHT22;9663;48.996;8.334;2023-06-14T09:21:50;28.10;30.00
19060;DHT22;9663;48.996;8.334;2023-06-14T09:24:18;28.30;30.00
19060;DHT22;9663;48.996;8.334;2023-06-14T09:26:47;28.30;30.00
19060;DHT22;9663;48.996;8.334;2023-06-14T09:29:13;28.40;30.00
19060;DHT22;9663;48.996;8.334;2023-06-14T09:31:39;28.50;30.00
19060;DHT22;9663;48.996;8.334;2023-06-14T09:34:05;28.60;29.90
19060;DHT22;9663;48.996;8.334;2023-06-14T09:36:31;28.70;29.90
19060;DHT22;9663;48.996;8.334;2023-06-14T09:38:58;28.70;29.80
19060;DHT22;9663;48.996;8.334;2023-06-14T09:41:33;28.80;29.70
19060;DHT22;9663;48.996;8.334;2023-06-14T09:44:01;28.80;29.50
19060;DHT22;9663;48.996;8.334;2023-06-14T09:46:32;28.90;29.60
19060;DHT22;9663;48.996;8.334;2023-06-14T09:48:59;29.00;29.50
19060;DHT22;9663;48.996;8.334;2023-06-14T09:51:27;29.10;29.60
19060;DHT22;9663;48.996;8.334;2023-06-14T09:53:59;29.20;29.60
19060;DHT22;9663;48.996;8.334;2023-06-14T09:56:37;29.30;29.30
19060;DHT22;9663;48.996;8.334;2023-06-14T09:59:09;29.40;29.30
19060;DHT22;9663;48.996;8.334;2023-06-14T10:01:42;29.50;28.90
19060;DHT22;9663;48.996;8.334;2023-06-14T10:04:09;29.50;28.80
19060;DHT22;9663;48.996;8.334;2023-06-14T10:06:45;29.50;28.90
19060;DHT22;9663;48.996;8.334;2023-06-14T10:09:12;29.60;28.10
19060;DHT22;9663;48.996;8.334;2023-06-14T10:11:38;29.60;28.50
19060;DHT22;9663;48.996;8.334;2023-06-14T10:14:11;29.60;28.40
19060;DHT22;9663;48.996;8.334;2023-06-14T10:16:41;29.60;28.50
19060;DHT22;9663;48.996;8.334;2023-06-14T10:19:24;29.60;28.60
19060;DHT22;9663;48.996;8.334;2023-06-14T10:22:19;29.60;28.10
19060;DHT22;9663;48.996;8.334;2023-06-14T10:25:13;29.80;28.00
19060;DHT22;9663;48.996;8.334;2023-06-14T10:27:51;29.80;28.00
19060;DHT22;9663;48.996;8.334;2023-06-14T10:30:16;29.90;28.10
19060;DHT22;9663;48.996;8.334;2023-06-14T10:33:03;29.90;27.90
19060;DHT22;9663;48.996;8.334;2023-06-14T10:35:31;29.90;28.40
19060;DHT22;9663;48.996;8.334;2023-06-14T10:38:06;29.90;28.10
19060;DHT22;9663;48.996;8.334;2023-06-14T10:40:33;30.00;27.90
19060;DHT22;9663;48.996;8.334;2023-06-14T10:42:59;30.10;28.10
19060;DHT22;9663;48.996;8.334;2023-06-14T10:45:25;30.20;28.00
19060;DHT22;9663;48.996;8.334;2023-06-14T10:47:51;30.30;28.00
19060;DHT22;9663;48.996;8.334;2023-06-14T10:50:28;30.40;27.90
19060;DHT22;9663;48.996;8.334;2023-06-14T10:52:58;30.50;27.40
19060;DHT22;9663;48.996;8.334;2023-06-14T10:55:24;30.70;27.60
19060;DHT22;9663;48.996;8.334;2023-06-14T10:57:54;30.80;27.50
19060;DHT22;9663;48.996;8.334;2023-06-14T11:00:25;30.90;27.20
19060;DHT22;9663;48.996;8.334;2023-06-14T11:05:57;31.20;27.00
19060;DHT22;9663;48.996;8.334;2023-06-14T11:11:00;31.50;26.90
19060;DHT22;9663;48.996;8.334;2023-06-14T11:13:31;31.60;26.70
19060;DHT22;9663;48.996;8.334;2023-06-14T11:15:56;31.60;26.40
19060;DHT22;9663;48.996;8.334;2023-06-14T11:18:23;31.50;26.20
19060;DHT22;9663;48.996;8.334;2023-06-14T11:20:50;31.20;26.00
19060;DHT22;9663;48.996;8.334;2023-06-14T11:23:16;31.00;25.90
19060;DHT22;9663;48.996;8.334;2023-06-14T11:25:42;30.70;26.00
19060;DHT22;9663;48.996;8.334;2023-06-14T11:28:07;30.50;26.10
19060;DHT22;9663;48.996;8.334;2023-06-14T11:30:33;30.30;26.30
19060;DHT22;9663;48.996;8.334;2023-06-14T11:32:59;30.20;26.70
19060;DHT22;9663;48.996;8.334;2023-06-14T11:35:26;30.30;27.30
19060;DHT22;9663;48.996;8.334;2023-06-14T11:37:55;30.70;27.60
19060;DHT22;9663;48.996;8.334;2023-06-14T11:40:24;31.40;27.80
19060;DHT22;9663;48.996;8.334;2023-06-14T11:42:59;32.30;27.80
19060;DHT22;9663;48.996;8.334;2023-06-14T11:45:26;33.30;26.90
19060;DHT22;9663;48.996;8.334;2023-06-14T11:47:54;34.10;26.90
19060;DHT22;9663;48.996;8.334;2023-06-14T11:50:24;34.80;26.40
19060;DHT22;9663;48.996;8.334;2023-06-14T11:52:58;35.40;25.90
19060;DHT22;9663;48.996;8.334;2023-06-14T11:55:29;35.80;24.70
19060;DHT22;9663;48.996;8.334;2023-06-14T11:57:54;35.80;24.30
19060;DHT22;9663;48.996;8.334;2023-06-14T12:00:25;35.60;24.00
19060;DHT22;9663;48.996;8.334;2023-06-14T12:02:55;35.10;24.00
19060;DHT22;9663;48.996;8.334;2023-06-14T12:05:22;34.90;24.30
19060;DHT22;9663;48.996;8.334;2023-06-14T12:07:49;35.00;24.60
19060;DHT22;9663;48.996;8.334;2023-06-14T12:10:16;35.00;24.20
19060;DHT22;9663;48.996;8.334;2023-06-14T12:12:42;35.00;24.00
19060;DHT22;9663;48.996;8.334;2023-06-14T12:15:09;34.80;23.70
19060;DHT22;9663;48.996;8.334;2023-06-14T12:17:38;34.40;23.60
19060;DHT22;9663;48.996;8.334;2023-06-14T12:20:12;34.00;23.60
19060;DHT22;9663;48.996;8.334;2023-06-14T12:22:46;33.50;23.70
19060;DHT22;9663;48.996;8.334;2023-06-14T12:25:32;33.10;23.90
19060;DHT22;9663;48.996;8.334;2023-06-14T12:28:09;32.80;24.00
19060;DHT22;9663;48.996;8.334;2023-06-14T12:30:35;32.60;24.20
19060;DHT22;9663;48.996;8.334;2023-06-14T12:33:03;32.40;24.30
19060;DHT22;9663;48.996;8.334;2023-06-14T12:35:30;32.40;24.70
19060;DHT22;9663;48.996;8.334;2023-06-14T12:37:55;32.80;25.20
19060;DHT22;9663;48.996;8.334;2023-06-14T12:40:22;33.30;25.30
19060;DHT22;9663;48.996;8.334;2023-06-14T12:42:48;34.10;25.40
19060;DHT22;9663;48.996;8.334;2023-06-14T12:45:14;35.00;25.30
19060;DHT22;9663;48.996;8.334;2023-06-14T12:47:40;35.80;24.70
19060;DHT22;9663;48.996;8.334;2023-06-14T12:50:06;36.50;24.10
19060;DHT22;9663;48.996;8.334;2023-06-14T12:52:32;37.20;23.80
19060;DHT22;9663;48.996;8.334;2023-06-14T12:55:04;37.80;23.50
19060;DHT22;9663;48.996;8.334;2023-06-14T12:57:30;38.30;23.00
19060;DHT22;9663;48.996;8.334;2023-06-14T12:59:57;38.30;21.10
19060;DHT22;9663;48.996;8.334;2023-06-14T13:02:22;38.90;21.70
19060;DHT22;9663;48.996;8.334;2023-06-14T13:04:50;39.30;21.90
19060;DHT22;9663;48.996;8.334;2023-06-14T13:07:16;39.60;21.70
19060;DHT22;9663;48.996;8.334;2023-06-14T13:09:42;40.00;21.30
19060;DHT22;9663;48.996;8.334;2023-06-14T13:12:10;40.30;21.20
19060;DHT22;9663;48.996;8.334;2023-06-14T13:14:40;40.50;20.90
19060;DHT22;9663;48.996;8.334;2023-06-14T13:17:08;40.60;20.60
19060;DHT22;9663;48.996;8.334;2023-06-14T13:19:35;40.90;20.60
19060;DHT22;9663;48.996;8.334;2023-06-14T13:22:01;41.00;20.40
19060;DHT22;9663;48.996;8.334;2023-06-14T13:24:27;41.20;20.30
19060;DHT22;9663;48.996;8.334;2023-06-14T13:26:55;41.40;20.20
19060;DHT22;9663;48.996;8.334;2023-06-14T13:29:22;41.70;20.20
19060;DHT22;9663;48.996;8.334;2023-06-14T13:31:48;42.00;20.10
19060;DHT22;9663;48.996;8.334;2023-06-14T13:34:14;42.40;20.00
19060;DHT22;9663;48.996;8.334;2023-06-14T13:36:40;42.70;20.20
19060;DHT22;9663;48.996;8.334;2023-06-14T13:50:09;41.80;17.60
19060;DHT22;9663;48.996;8.334;2023-06-14T13:52:35;41.60;18.60
19060;DHT22;9663;48.996;8.334;2023-06-14T13:55:02;41.50;18.60
19060;DHT22;9663;48.996;8.334;2023-06-14T13:57:27;41.50;18.70
19060;DHT22;9663;48.996;8.334;2023-06-14T13:59:53;41.40;18.70
19060;DHT22;9663;48.996;8.334;2023-06-14T14:02:21;41.30;18.50
19060;DHT22;9663;48.996;8.334;2023-06-14T14:04:46;41.10;18.40
19060;DHT22;9663;48.996;8.334;2023-06-14T14:07:18;40.80;18.20
19060;DHT22;9663;48.996;8.334;2023-06-14T14:09:44;40.50;18.10
19060;DHT22;9663;48.996;8.334;2023-06-14T14:12:10;40.10;18.00
19060;DHT22;9663;48.996;8.334;2023-06-14T14:14:36;39.60;17.90
19060;DHT22;9663;48.996;8.334;2023-06-14T14:17:02;39.10;18.00
19060;DHT22;9663;48.996;8.334;2023-06-14T14:19:29;38.50;18.10
19060;DHT22;9663;48.996;8.334;2023-06-14T14:21:54;38.00;18.10
19060;DHT22;9663;48.996;8.334;2023-06-14T14:24:20;37.30;17.90
19060;DHT22;9663;48.996;8.334;2023-06-14T14:26:46;37.00;18.40
19060;DHT22;9663;48.996;8.334;2023-06-14T14:29:14;36.80;18.60
19060;DHT22;9663;48.996;8.334;2023-06-14T14:31:40;36.90;19.00
19060;DHT22;9663;48.996;8.334;2023-06-14T14:34:05;37.20;19.10
19060;DHT22;9663;48.996;8.334;2023-06-14T14:36:31;37.50;19.10
19060;DHT22;9663;48.996;8.334;2023-06-14T14:38:58;37.90;19.20
19060;DHT22;9663;48.996;8.334;2023-06-14T14:41:24;38.30;19.00
19060;DHT22;9663;48.996;8.334;2023-06-14T14:43:50;38.30;18.30
19060;DHT22;9663;48.996;8.334;2023-06-14T14:46:16;38.10;18.00
19060;DHT22;9663;48.996;8.334;2023-06-14T14:48:42;37.80;18.30
19060;DHT22;9663;48.996;8.334;2023-06-14T14:51:07;37.60;18.60
19060;DHT22;9663;48.996;8.334;2023-06-14T14:53:33;37.80;18.90
19060;DHT22;9663;48.996;8.334;2023-06-14T14:55:59;38.30;19.00
19060;DHT22;9663;48.996;8.334;2023-06-14T14:58:25;38.80;18.90
19060;DHT22;9663;48.996;8.334;2023-06-14T15:00:51;39.40;18.90
19060;DHT22;9663;48.996;8.334;2023-06-14T15:03:16;39.90;18.70
19060;DHT22;9663;48.996;8.334;2023-06-14T15:05:42;40.40;18.40
19060;DHT22;9663;48.996;8.334;2023-06-14T15:08:08;40.90;18.40
19060;DHT22;9663;48.996;8.334;2023-06-14T15:10:38;41.30;18.30
19060;DHT22;9663;48.996;8.334;2023-06-14T15:13:09;41.80;18.00
19060;DHT22;9663;48.996;8.334;2023-06-14T15:15:36;42.30;17.90
19060;DHT22;9663;48.996;8.334;2023-06-14T15:18:02;42.70;17.60
19060;DHT22;9663;48.996;8.334;2023-06-14T15:20:29;43.10;17.30
19060;DHT22;9663;48.996;8.334;2023-06-14T15:22:55;43.40;17.10
19060;DHT22;9663;48.996;8.334;2023-06-14T15:25:27;43.70;17.00
19060;DHT22;9663;48.996;8.334;2023-06-14T15:27:53;43.90;16.50
19060;DHT22;9663;48.996;8.334;2023-06-14T15:30:20;44.10;16.50
19060;DHT22;9663;48.996;8.334;2023-06-14T15:32:46;44.20;16.40
19060;DHT22;9663;48.996;8.334;2023-06-14T15:35:12;44.40;16.30
19060;DHT22;9663;48.996;8.334;2023-06-14T15:37:37;44.60;16.20
19060;DHT22;9663;48.996;8.334;2023-06-14T15:40:04;44.80;16.00
19060;DHT22;9663;48.996;8.334;2023-06-14T15:42:31;45.00;15.90
19060;DHT22;9663;48.996;8.334;2023-06-14T15:44:56;45.10;15.70
19060;DHT22;9663;48.996;8.334;2023-06-14T15:47:22;45.30;15.60
19060;DHT22;9663;48.996;8.334;2023-06-14T15:49:48;45.50;15.80
19060;DHT22;9663;48.996;8.334;2023-06-14T15:52:14;45.70;15.50
19060;DHT22;9663;48.996;8.334;2023-06-14T15:54:40;45.90;15.30
19060;DHT22;9663;48.996;8.334;2023-06-14T15:57:05;46.10;15.20
19060;DHT22;9663;48.996;8.334;2023-06-14T15:59:32;46.10;15.00
19060;DHT22;9663;48.996;8.334;2023-06-14T16:01:58;46.10;14.70
19060;DHT22;9663;48.996;8.334;2023-06-14T16:04:23;46.00;14.60
19060;DHT22;9663;48.996;8.334;2023-06-14T16:06:49;46.00;14.70